Nearby METAR Reports

 

KMRB - Martinsburg, West Virginia, USA
Distance from station: NNW 9mi, 14km
Updated: 02/23/2019 7:53pm
Mist, Overcast
Mist, Overcast
 Wind from calm
Wind: Calm
Temperature: 36°F , 2°C
Dew Point: 34°F , 1°C
Humidity: 93%
Barometer: 30.19 inHg , 1022.4 hPa
Summary: Mist
Clouds: Overcast
Visibility: 4 miles , 6 km
Cloud details: Overcast 500 ft
2019/02/24 00:53 KMRB 240053Z AUTO 00000KT 4SM BR OVC005 02/01 A3019 RMK AO2 SLP228 T00170011
KOKV - Winchester Rgnl, Virginia, USA
Distance from station: SW 17mi, 28km
Updated: 02/23/2019 8:35pm
Mist, Overcast
Mist, Overcast
 Wind from ESE
Wind: ESE 3 mph , 6 km/h
Temperature: 34°F , 1°C
Dew Point: 32°F , 0°C
Humidity: 93%
Barometer: 30.20 inHg , 1022.7 hPa
Summary: Mist
Clouds: Overcast
Visibility: 5 miles , 8 km
Cloud details: Overcast 400 ft
2019/02/24 01:35 KOKV 240135Z AUTO 12003KT 5SM BR OVC004 01/00 A3020 RMK AO2
 
KJYO - Leesburg/Godfrey, Virginia, USA
Distance from station: SE 23mi, 38km
Updated: 02/23/2019 8:35pm
Overcast
Overcast
 Wind from calm
Wind: Calm
Temperature: 36°F , 2°C
Dew Point: 36°F , 2°C
Humidity: 100%
Barometer: 30.21 inHg , 1023 hPa
Clouds: Overcast
Visibility: 3 miles , 5 km
Cloud details: Overcast 400 ft
2019/02/24 01:35 KJYO 240135Z AUTO 00000KT 3SM OVC004 02/02 A3021 RMK AO2
KFDK - Frederick, Maryland, USA
Distance from station: ENE 30mi, 48km
Updated: 02/23/2019 8:47pm
Mist, Overcast
Mist, Overcast
 Wind from N
Wind: N 6 mph , 9 km/h
Temperature: 37°F , 3°C
Wind Chill: 32°F , 0°C
Dew Point: 36°F , 2°C
Humidity: 93%
Barometer: 30.24 inHg , 1024 hPa
Summary: Mist
Clouds: Overcast
Visibility: 4 miles , 6 km
Cloud details: Mostly cloudy 800 ft
Overcast 1400 ft
2019/02/24 01:47 KFDK 240147Z 01005KT 4SM BR BKN008 OVC014 03/02 A3024
 
KHGR - Hagerstown, Maryland, USA
Distance from station: NNE 30mi, 48km
Updated: 02/23/2019 8:18pm
Mist, Overcast
Mist, Overcast
 Wind from ENE
Wind: ENE 5 mph , 7 km/h
Temperature: 36°F , 2°C
Wind Chill: 32°F , 0°C
Dew Point: 32°F , 0°C
Humidity: 87%
Barometer: 30.19 inHg , 1022.4 hPa
Summary: Mist
Clouds: Overcast
Visibility: 2 miles , 3 km
Cloud details: Few Clouds 200 ft
Few Clouds 1400 ft
Overcast 3300 ft
2019/02/24 01:18 KHGR 240118Z 06004KT 2SM BR FEW002 FEW014 OVC033 02/00 A3019 RMK AO2 T00220000
KIAD - Wash Dc/Dulles, Virginia, USA
Distance from station: SE 34mi, 55km
Updated: 02/23/2019 8:47pm
Light drizzle, Mist, Overcast
Light drizzle, Mist, Overcast
 Wind from NE
Wind: NE 3 mph , 6 km/h
Temperature: 37°F , 3°C
Dew Point: 36°F , 2°C
Humidity: 93%
Barometer: 30.19 inHg , 1022.4 hPa
Summary: Light drizzle, Mist
Clouds: Overcast
Visibility: 2 miles , 3 km
Cloud details: Overcast 700 ft
2019/02/24 01:47 KIAD 240147Z 04003KT 2SM -DZ BR OVC007 03/02 A3019 RMK AO2 SFC VIS 2 1/2 P0000
 
KRSP - Nsf Thurmont, Maryland, USA
Distance from station: NE 34mi, 55km
Updated: 02/23/2019 8:12pm
Freezing fog, Overcast
Freezing fog, Overcast
 
Temperature: 30°F , -1°C
Dew Point: 30°F , -1°C
Humidity: 100%
Barometer: 30.14 inHg , 1020.7 hPa
Summary: Freezing Fog
Clouds: Overcast
Visibility: less than 1/4 mile , 0.4 km
Cloud details: Overcast 100 ft
2019/02/24 01:12 KRSP 240112Z AUTO M1/4SM FZFG VV001 M01/M01 A3014 RMK AO2 WSHFT 0041 $
KGAI - Gaithersburg, Maryland, USA
Distance from station: E 40mi, 64km
Updated: 02/23/2019 8:20pm
Mist, Overcast
Mist, Overcast
 Wind from ENE
Wind: ENE 3 mph , 6 km/h
Temperature: 36°F , 2°C
Dew Point: 34°F , 1°C
Humidity: 93%
Barometer: 30.20 inHg , 1022.7 hPa
Summary: Mist
Clouds: Overcast
Visibility: 3 miles , 5 km
Cloud details: Overcast 400 ft
2019/02/24 01:20 KGAI 240120Z AUTO 06003KT 3SM BR OVC004 02/01 A3020 RMK AO2 FZRANO
 
KRYT - Fountain Dale, Pennsylvania, USA
Distance from station: NE 40mi, 64km
Updated: 11/13/2017 7:53am
NOT Current
Mist, Overcast
Mist, Overcast
 Wind from calm
Wind: Calm
Temperature: 37°F , 3°C
Dew Point: 34°F , 1°C
Humidity: 87%
Barometer: 30.31 inHg , 1026.4 hPa
Summary: Mist
Clouds: Overcast
Visibility: 5 miles , 8 km
Cloud details: Overcast 700 ft
2017/11/13 12:53 KRYT 131253Z AUTO 00000KT 5SM BR OVC007 03/01 A3031 RMK AO2 SLP275 T00280011 TSNO $
KHEF - Manassas Muni, Virginia, USA
Distance from station: SSE 44mi, 72km
Updated: 02/23/2019 8:03pm
Overcast
Overcast
 Wind from NE
Wind: NE 3 mph , 6 km/h
Temperature: 37°F , 3°C
Dew Point: 36°F , 2°C
Humidity: 93%
Barometer: 30.21 inHg , 1023 hPa
Clouds: Overcast
Visibility: 2 1/2 miles , 4 km
Cloud details: Overcast 600 ft
2019/02/24 01:03 KHEF 240103Z 04003KT 2 1/2SM OVC006 03/02 A3021 RMK AO2 CIG 003V010
 
KHWY - Warrenton, Virginia, USA
Distance from station: SSE 50mi, 80km
Updated: 02/23/2019 8:35pm
Drizzle, Overcast
Drizzle, Overcast
 Wind from N
Wind: N 5 mph , 7 km/h
Temperature: 37°F , 3°C
Wind Chill: 33°F , 1°C
Dew Point: 36°F , 2°C
Humidity: 93%
Barometer: 30.20 inHg , 1022.7 hPa
Summary: Drizzle
Clouds: Overcast
Visibility: 2 miles , 3 km
Cloud details: Overcast 300 ft
2019/02/24 01:35 KHWY 240135Z AUTO 01004KT 2SM DZ OVC003 03/02 A3020 RMK AO2 T00340019